createdAt,value
2022-11-29T00:03:01.433Z,34.50
2022-11-29T00:05:48.461Z,33.90
2022-11-29T00:08:36.398Z,35.00
2022-11-29T00:11:43.252Z,39.60
2022-11-29T00:14:30.600Z,38.50
2022-11-29T00:17:17.352Z,41.10
2022-11-29T00:20:04.456Z,39.50
2022-11-29T00:22:51.600Z,39.40
2022-11-29T00:25:38.832Z,44.60
2022-11-29T00:28:25.692Z,40.70
2022-11-29T00:31:16.384Z,41.40
2022-11-29T00:34:04.774Z,41.80
2022-11-29T00:36:51.994Z,33.30
2022-11-29T00:39:38.558Z,52.20
2022-11-29T00:42:25.491Z,51.70
2022-11-29T00:45:12.257Z,57.30
2022-11-29T00:47:58.928Z,60.40
2022-11-29T00:50:45.634Z,52.30
2022-11-29T00:53:33.715Z,60.10
2022-11-29T00:56:20.637Z,59.80
2022-11-29T00:59:07.394Z,52.30
2022-11-29T01:01:54.122Z,61.00
2022-11-29T01:04:41.132Z,59.60
2022-11-29T01:07:28.022Z,60.50
2022-11-29T01:10:15.303Z,54.30
2022-11-29T01:13:01.862Z,49.10
2022-11-29T01:15:55.378Z,57.30
2022-11-29T01:18:42.415Z,49.00
2022-11-29T01:21:29.158Z,44.20
2022-11-29T01:24:15.845Z,57.10
2022-11-29T01:27:02.486Z,57.30
2022-11-29T01:29:49.239Z,59.40
2022-11-29T01:32:36.398Z,57.00
2022-11-29T01:35:23.402Z,59.20
2022-11-29T01:38:10.086Z,58.00
2022-11-29T01:41:07.297Z,53.90
2022-11-29T01:43:55.404Z,51.90
2022-11-29T01:46:43.683Z,51.10
2022-11-29T01:49:34.054Z,53.60
2022-11-29T01:52:25.576Z,53.00
2022-11-29T01:55:13.021Z,57.80
2022-11-29T01:58:00.486Z,55.40
2022-11-29T02:04:17.785Z,63.50
2022-11-29T02:07:05.542Z,57.20
2022-11-29T02:09:52.433Z,46.50
2022-11-29T02:12:45.402Z,49.90
2022-11-29T02:15:51.571Z,50.20
2022-11-29T02:18:49.670Z,51.20
2022-11-29T02:21:36.273Z,47.80
2022-11-29T02:24:23.299Z,42.80
2022-11-29T02:27:42.864Z,42.70
2022-11-29T02:30:38.500Z,35.00
2022-11-29T02:33:34.790Z,41.30
2022-11-29T02:36:24.876Z,39.30
2022-11-29T02:39:11.798Z,36.10
2022-11-29T02:42:10.895Z,29.70
2022-11-29T02:45:14.714Z,35.60
2022-11-29T02:48:04.327Z,43.30
2022-11-29T02:51:10.160Z,37.70
2022-11-29T02:54:04.348Z,37.10
2022-11-29T02:56:57.224Z,38.20
2022-11-29T02:59:53.127Z,33.50
2022-11-29T03:02:43.252Z,34.70
2022-11-29T03:05:30.098Z,40.20
2022-11-29T03:08:25.756Z,38.50
2022-11-29T03:11:31.232Z,34.00
2022-11-29T03:14:28.760Z,42.20
2022-11-29T03:17:30.681Z,42.20
2022-11-29T03:20:26.606Z,36.90
2022-11-29T03:23:23.756Z,37.30
2022-11-29T03:26:29.509Z,34.80
2022-11-29T03:29:32.626Z,33.80
2022-11-29T03:32:27.770Z,31.80
2022-11-29T03:35:17.497Z,27.50
2022-11-29T03:38:13.340Z,34.30
2022-11-29T03:41:05.809Z,32.30
2022-11-29T03:46:46.372Z,23.30
2022-11-29T03:49:35.808Z,36.50
2022-11-29T03:52:35.680Z,26.10
2022-11-29T03:55:22.192Z,29.00
2022-11-29T03:58:14.860Z,36.60
2022-11-29T04:01:07.930Z,31.80
2022-11-29T04:04:09.808Z,36.00
2022-11-29T04:07:17.434Z,34.70
2022-11-29T04:10:04.287Z,38.70
2022-11-29T04:12:51.189Z,33.30
2022-11-29T04:15:40.745Z,28.70
2022-11-29T04:18:46.481Z,36.00
2022-11-29T04:21:39.625Z,26.80
2022-11-29T04:24:35.843Z,31.20
2022-11-29T04:27:22.346Z,31.10
2022-11-29T04:30:24.794Z,31.80
2022-11-29T04:33:21.177Z,44.90
2022-11-29T04:36:23.588Z,48.30
2022-11-29T04:39:29.224Z,43.50
2022-11-29T04:42:16.460Z,41.60
2022-11-29T04:45:03.108Z,44.30
2022-11-29T04:47:50.507Z,46.80
2022-11-29T04:50:53.392Z,34.10
2022-11-29T04:53:40.332Z,45.80
2022-11-29T04:56:30.194Z,37.90
2022-11-29T04:59:25.684Z,43.10
2022-11-29T05:02:23.817Z,38.80
2022-11-29T05:05:16.965Z,44.10
2022-11-29T05:08:13.110Z,41.60
2022-11-29T05:11:06.658Z,45.20
2022-11-29T05:13:56.860Z,37.10
2022-11-29T05:17:02.578Z,39.80
2022-11-29T05:20:01.091Z,34.70
2022-11-29T05:22:54.406Z,37.20
2022-11-29T05:25:54.558Z,39.60
2022-11-29T05:28:50.544Z,38.40
2022-11-29T05:31:46.840Z,31.20
2022-11-29T05:34:46.487Z,29.10
2022-11-29T05:37:45.397Z,27.00
2022-11-29T05:40:32.408Z,39.20
2022-11-29T05:43:22.099Z,44.00
2022-11-29T05:46:21.602Z,45.00
2022-11-29T05:49:17.161Z,40.70
2022-11-29T05:52:04.211Z,43.70
2022-11-29T05:54:50.661Z,30.50
2022-11-29T05:57:37.846Z,33.50
2022-11-29T06:00:24.863Z,36.30
2022-11-29T06:03:34.014Z,40.20
2022-11-29T06:06:43.530Z,44.40
2022-11-29T06:09:33.949Z,42.50
2022-11-29T06:12:21.688Z,51.10
2022-11-29T06:15:17.784Z,48.30
2022-11-29T06:18:10.454Z,48.50
2022-11-29T06:21:02.609Z,35.70
2022-11-29T06:23:55.351Z,46.30
2022-11-29T06:26:54.957Z,46.20
2022-11-29T06:29:41.776Z,36.40
2022-11-29T06:32:29.001Z,51.40
2022-11-29T06:35:28.389Z,42.70
2022-11-29T06:38:15.511Z,43.70
2022-11-29T06:41:02.772Z,41.70
2022-11-29T06:43:50.000Z,39.70
2022-11-29T06:46:57.752Z,44.00
2022-11-29T06:49:53.977Z,30.10
2022-11-29T06:52:48.537Z,43.50
2022-11-29T06:55:54.213Z,40.30
2022-11-29T06:58:49.880Z,42.90
2022-11-29T07:01:42.846Z,41.90
2022-11-29T07:04:38.064Z,37.90
2022-11-29T07:07:28.073Z,38.20
2022-11-29T07:10:17.220Z,33.30
2022-11-29T07:13:04.136Z,32.70
2022-11-29T07:15:54.452Z,33.60
2022-11-29T07:19:01.536Z,34.10
2022-11-29T07:22:04.611Z,36.90
2022-11-29T07:25:07.605Z,31.90
2022-11-29T07:27:54.418Z,33.00
2022-11-29T07:30:40.953Z,36.90
2022-11-29T07:33:42.133Z,42.10
2022-11-29T07:36:34.027Z,49.10
2022-11-29T07:39:31.843Z,48.40
2022-11-29T07:42:40.990Z,45.80
2022-11-29T07:45:29.006Z,47.90
2022-11-29T07:48:16.533Z,45.20
2022-11-29T07:51:03.786Z,40.00
2022-11-29T07:53:50.669Z,41.40
2022-11-29T07:56:37.597Z,36.40
2022-11-29T07:59:24.178Z,37.20
2022-11-29T08:02:12.120Z,40.90
2022-11-29T08:04:58.848Z,34.90
2022-11-29T08:07:47.591Z,35.10
2022-11-29T08:10:35.657Z,32.80
2022-11-29T08:13:22.436Z,30.30
2022-11-29T08:16:17.807Z,30.10
2022-11-29T08:19:05.027Z,27.90
2022-11-29T08:21:52.304Z,29.20
2022-11-29T08:24:39.768Z,25.30
2022-11-29T08:27:26.508Z,24.20
2022-11-29T08:30:13.918Z,21.90
2022-11-29T08:33:01.028Z,25.10
2022-11-29T08:35:47.853Z,24.00
2022-11-29T08:38:34.915Z,26.00
2022-11-29T08:41:22.193Z,29.00
2022-11-29T08:44:08.954Z,29.20
2022-11-29T08:47:14.436Z,26.40
2022-11-29T08:50:01.273Z,27.50
2022-11-29T08:53:07.890Z,27.90
2022-11-29T08:55:59.050Z,23.00
2022-11-29T08:58:46.389Z,27.90
2022-11-29T09:01:32.863Z,26.30
2022-11-29T09:04:19.966Z,24.50
2022-11-29T09:07:06.853Z,25.00
2022-11-29T09:09:53.447Z,25.90
2022-11-29T09:12:40.194Z,27.30
2022-11-29T09:15:26.969Z,24.90
2022-11-29T09:18:13.527Z,25.80
2022-11-29T09:21:00.364Z,28.60
2022-11-29T09:23:47.034Z,26.10
2022-11-29T09:26:35.992Z,25.20
2022-11-29T09:29:22.820Z,27.80
2022-11-29T09:32:09.986Z,25.40
2022-11-29T09:34:57.127Z,26.40
2022-11-29T09:37:43.939Z,27.20
2022-11-29T09:40:37.720Z,24.90
2022-11-29T09:43:34.207Z,24.70
2022-11-29T09:46:40.225Z,28.20
2022-11-29T09:49:42.212Z,25.80
2022-11-29T09:55:35.279Z,26.30
2022-11-29T09:58:23.726Z,21.00
2022-11-29T10:01:14.048Z,23.40
2022-11-29T10:04:03.038Z,27.50
2022-11-29T10:06:50.092Z,25.30
2022-11-29T10:09:40.835Z,25.70
2022-11-29T10:12:35.220Z,23.40
2022-11-29T10:15:32.040Z,24.40
2022-11-29T10:18:24.152Z,24.40
2022-11-29T10:24:14.919Z,24.70
2022-11-29T10:27:18.388Z,25.40
2022-11-29T10:30:15.231Z,24.70
2022-11-29T10:33:16.020Z,22.30
2022-11-29T10:36:22.032Z,22.10
2022-11-29T10:39:22.340Z,20.60
2022-11-29T10:42:37.510Z,21.40
2022-11-29T10:45:35.276Z,20.70
2022-11-29T10:48:23.239Z,21.00
2022-11-29T10:51:16.417Z,20.30
2022-11-29T10:54:13.087Z,20.20
2022-11-29T10:57:00.756Z,22.50
2022-11-29T11:00:07.490Z,22.60
2022-11-29T11:02:54.203Z,18.40
2022-11-29T11:05:41.254Z,19.70
2022-11-29T11:08:28.567Z,18.40
2022-11-29T11:11:23.243Z,20.60
2022-11-29T11:14:24.409Z,18.40
2022-11-29T11:17:26.507Z,18.20
2022-11-29T11:23:02.262Z,20.20
2022-11-29T11:25:55.454Z,21.90
2022-11-29T11:28:43.815Z,20.80
2022-11-29T11:31:40.350Z,21.10
2022-11-29T11:34:34.456Z,19.80
2022-11-29T11:37:23.010Z,19.60
2022-11-29T11:40:26.078Z,18.60
2022-11-29T11:43:17.975Z,21.30
2022-11-29T11:46:06.846Z,19.40
2022-11-29T11:48:55.002Z,21.50
2022-11-29T11:51:43.127Z,21.40
2022-11-29T11:54:30.751Z,21.10
2022-11-29T11:57:18.843Z,20.50
2022-11-29T12:00:07.313Z,21.70
2022-11-29T12:02:59.106Z,23.20
2022-11-29T12:05:47.394Z,20.40
2022-11-29T12:08:36.288Z,21.30
2022-11-29T12:11:24.126Z,21.20
2022-11-29T12:14:16.011Z,21.80
2022-11-29T12:17:32.299Z,22.70
2022-11-29T12:20:24.983Z,22.40
2022-11-29T12:26:06.789Z,23.00
2022-11-29T12:28:53.322Z,21.40
2022-11-29T12:31:59.045Z,22.40
2022-11-29T12:34:49.499Z,23.10
2022-11-29T12:37:36.362Z,24.40
2022-11-29T12:40:28.044Z,25.50
2022-11-29T12:46:13.364Z,28.00
2022-11-29T12:49:12.089Z,30.60
2022-11-29T12:52:07.373Z,32.90
2022-11-29T12:55:00.463Z,33.00
2022-11-29T12:58:09.230Z,32.90
2022-11-29T13:01:11.499Z,31.10
2022-11-29T13:04:17.291Z,33.30
2022-11-29T13:07:20.887Z,29.60
2022-11-29T13:10:25.120Z,32.90
2022-11-29T13:13:25.675Z,30.50
2022-11-29T13:16:31.028Z,30.50
2022-11-29T13:19:33.684Z,31.60
2022-11-29T13:22:38.648Z,23.10
2022-11-29T13:25:28.805Z,28.60
2022-11-29T13:28:29.597Z,23.50
2022-11-29T13:31:21.037Z,30.10
2022-11-29T13:34:15.882Z,30.00
2022-11-29T13:37:12.194Z,25.30
2022-11-29T13:40:14.075Z,23.50
2022-11-29T13:43:20.219Z,27.20
2022-11-29T13:46:26.071Z,24.40
2022-11-29T13:49:42.581Z,25.40
2022-11-29T13:52:38.502Z,25.60
2022-11-29T13:55:31.927Z,24.10
2022-11-29T13:58:18.992Z,22.00
2022-11-29T14:01:06.525Z,24.90
2022-11-29T14:04:01.450Z,23.40
2022-11-29T14:06:49.472Z,24.00
2022-11-29T14:09:41.313Z,20.90
2022-11-29T14:12:35.992Z,24.40
2022-11-29T14:15:29.520Z,19.00
2022-11-29T14:18:35.053Z,21.50
2022-11-29T14:24:27.577Z,20.10
2022-11-29T14:28:41.732Z,20.20
2022-11-29T14:31:49.377Z,20.10
2022-11-29T14:34:43.923Z,18.50
2022-11-29T14:37:40.383Z,17.30
2022-11-29T14:40:42.564Z,16.90
2022-11-29T14:43:35.623Z,19.50
2022-11-29T14:46:29.443Z,21.70
2022-11-29T14:49:26.384Z,19.60
2022-11-29T14:52:21.638Z,26.20
2022-11-29T14:55:08.683Z,22.10
2022-11-29T14:58:01.432Z,21.80
2022-11-29T15:00:48.422Z,17.70
2022-11-29T15:03:37.663Z,21.50
2022-11-29T15:06:26.238Z,22.70
2022-11-29T15:09:20.351Z,20.20
2022-11-29T15:12:16.833Z,22.10
2022-11-29T15:16:52.632Z,20.90
2022-11-29T15:19:48.134Z,19.20
2022-11-29T15:22:54.933Z,21.10
2022-11-29T15:25:48.995Z,18.30
2022-11-29T15:28:36.072Z,17.40
2022-11-29T15:31:28.801Z,17.30
2022-11-29T15:34:45.314Z,19.00
2022-11-29T15:37:37.929Z,19.80
2022-11-29T15:40:39.101Z,19.40
2022-11-29T15:45:25.523Z,21.20
2022-11-29T15:48:25.546Z,21.40
2022-11-29T15:51:29.709Z,18.40
2022-11-29T15:54:31.224Z,21.60
2022-11-29T15:57:34.544Z,22.50
2022-11-29T16:00:30.566Z,17.50
2022-11-29T16:03:25.690Z,18.50
2022-11-29T16:06:35.999Z,17.40
2022-11-29T16:09:33.051Z,17.70
2022-11-29T16:12:19.759Z,17.70
2022-11-29T16:15:24.024Z,13.10
2022-11-29T16:18:13.085Z,22.90
2022-11-29T16:21:02.126Z,21.80
2022-11-29T16:23:49.318Z,17.10
2022-11-29T16:26:38.672Z,18.50
2022-11-29T16:29:35.736Z,20.60
2022-11-29T16:32:33.872Z,20.10
2022-11-29T16:35:27.662Z,22.10
2022-11-29T16:38:19.989Z,17.50
2022-11-29T16:43:55.519Z,18.30
2022-11-29T16:46:42.013Z,13.80
2022-11-29T16:49:34.126Z,16.00
2022-11-29T16:52:28.381Z,17.90
2022-11-29T16:55:16.697Z,17.50
2022-11-29T16:58:03.928Z,23.00
2022-11-29T17:00:51.488Z,23.50
2022-11-29T17:03:38.081Z,19.70
2022-11-29T17:06:25.515Z,24.10
2022-11-29T17:09:22.981Z,24.20
2022-11-29T17:12:13.217Z,24.90
2022-11-29T17:14:59.873Z,22.90
2022-11-29T17:17:46.992Z,24.70
2022-11-29T17:20:33.946Z,28.40
2022-11-29T17:23:21.102Z,34.60
2022-11-29T17:26:07.835Z,25.80
2022-11-29T17:28:54.608Z,25.00
2022-11-29T17:31:42.788Z,21.40
2022-11-29T17:34:30.114Z,18.40
2022-11-29T17:37:16.845Z,23.10
2022-11-29T17:40:04.067Z,25.40
2022-11-29T17:42:50.966Z,28.10
2022-11-29T17:45:38.414Z,25.30
2022-11-29T17:48:28.088Z,25.60
2022-11-29T17:54:24.373Z,25.80
2022-11-29T17:57:11.032Z,23.70
2022-11-29T17:59:57.707Z,20.50
2022-11-29T18:02:44.395Z,26.00
2022-11-29T18:05:34.565Z,28.00
2022-11-29T18:08:21.742Z,28.10
2022-11-29T18:11:11.876Z,28.60
2022-11-29T18:13:59.613Z,22.30
2022-11-29T18:16:46.813Z,31.80
2022-11-29T18:19:34.034Z,34.30
2022-11-29T18:22:21.150Z,28.70
2022-11-29T18:25:37.078Z,31.20
2022-11-29T18:28:14.939Z,28.40
2022-11-29T18:31:12.584Z,26.40
2022-11-29T18:34:00.581Z,27.70
2022-11-29T18:36:48.202Z,25.60
2022-11-29T18:39:35.296Z,28.60
2022-11-29T18:42:22.068Z,31.90
2022-11-29T18:45:08.904Z,38.40
2022-11-29T18:47:55.773Z,21.20
2022-11-29T18:50:42.390Z,26.30
2022-11-29T18:53:29.439Z,30.80
2022-11-29T18:56:17.088Z,22.80
2022-11-29T18:59:05.510Z,21.70
2022-11-29T19:01:52.164Z,22.90
2022-11-29T19:04:38.871Z,25.80
2022-11-29T19:07:26.294Z,25.00
2022-11-29T19:10:13.052Z,15.90
2022-11-29T19:12:59.871Z,32.90
2022-11-29T19:15:53.764Z,31.30
2022-11-29T19:18:40.639Z,30.40
2022-11-29T19:21:28.206Z,30.40
2022-11-29T19:24:15.894Z,28.50
2022-11-29T19:27:04.846Z,28.90
2022-11-29T19:29:51.709Z,29.80
2022-11-29T19:32:38.394Z,27.40
2022-11-29T19:35:25.198Z,33.50
2022-11-29T19:38:11.865Z,33.90
2022-11-29T19:40:58.500Z,27.90
2022-11-29T19:43:45.599Z,30.00
2022-11-29T19:46:33.961Z,25.50
2022-11-29T19:49:21.253Z,28.40
2022-11-29T19:52:08.184Z,30.40
2022-11-29T19:54:55.129Z,26.90
2022-11-29T19:57:42.244Z,30.40
2022-11-29T20:00:29.891Z,27.30
2022-11-29T20:03:16.862Z,30.10
2022-11-29T20:06:04.346Z,27.50
2022-11-29T20:08:51.389Z,26.30
2022-11-29T20:11:38.182Z,30.10
2022-11-29T20:14:25.112Z,26.60
2022-11-29T20:17:11.917Z,23.40
2022-11-29T20:19:58.608Z,23.80
2022-11-29T20:22:45.182Z,26.50
2022-11-29T20:25:32.237Z,14.90
2022-11-29T20:28:19.240Z,30.10
2022-11-29T20:31:07.277Z,26.10
2022-11-29T20:33:57.095Z,21.90
2022-11-29T20:36:53.294Z,23.00
2022-11-29T20:39:52.946Z,21.60
2022-11-29T20:42:52.182Z,20.00
2022-11-29T20:45:39.450Z,21.50
2022-11-29T20:48:26.061Z,21.50
2022-11-29T20:51:12.743Z,25.30
2022-11-29T20:53:59.498Z,21.90
2022-11-29T20:56:47.867Z,19.80
2022-11-29T20:59:34.571Z,24.40
2022-11-29T21:02:21.322Z,22.70
2022-11-29T21:05:08.375Z,26.10
2022-11-29T21:07:55.279Z,22.20
2022-11-29T21:10:42.227Z,24.70
2022-11-29T21:13:29.089Z,23.80
2022-11-29T21:16:15.887Z,19.80
2022-11-29T21:19:02.658Z,23.80
2022-11-29T21:21:52.837Z,24.00
2022-11-29T21:24:52.108Z,24.10
2022-11-29T21:27:39.325Z,19.50
2022-11-29T21:30:26.228Z,24.30
2022-11-29T21:33:13.351Z,24.00
2022-11-29T21:35:59.921Z,20.10
2022-11-29T21:38:53.931Z,22.50
2022-11-29T21:41:41.448Z,22.40
2022-11-29T21:44:28.670Z,20.40
2022-11-29T21:47:15.118Z,18.70
2022-11-29T21:50:02.320Z,21.60
2022-11-29T21:52:50.901Z,24.10
2022-11-29T21:55:37.960Z,23.10
2022-11-29T21:58:24.868Z,24.70
2022-11-29T22:01:13.611Z,21.40
2022-11-29T22:04:00.265Z,19.90
2022-11-29T22:06:47.552Z,19.70
2022-11-29T22:09:34.229Z,20.10
2022-11-29T22:12:36.731Z,21.40
2022-11-29T22:15:25.206Z,23.30
2022-11-29T22:18:12.989Z,23.80
2022-11-29T22:21:04.005Z,24.60
2022-11-29T22:23:52.245Z,24.00
2022-11-29T22:26:39.480Z,23.40
2022-11-29T22:29:26.612Z,22.30
2022-11-29T22:32:13.519Z,18.30
2022-11-29T22:35:00.906Z,26.80
2022-11-29T22:37:48.019Z,21.70
2022-11-29T22:40:35.251Z,19.80
2022-11-29T22:43:21.963Z,24.60
2022-11-29T22:46:10.459Z,17.30
2022-11-29T22:49:00.623Z,24.10
2022-11-29T22:51:47.873Z,23.70
2022-11-29T22:54:34.284Z,22.60
2022-11-29T22:57:21.622Z,23.20
2022-11-29T23:00:08.375Z,22.00
2022-11-29T23:02:58.497Z,26.20
2022-11-29T23:05:45.064Z,26.00
2022-11-29T23:08:32.406Z,24.30
2022-11-29T23:11:23.428Z,23.00
2022-11-29T23:14:10.501Z,19.60
2022-11-29T23:16:57.420Z,18.50
2022-11-29T23:19:44.094Z,22.20
2022-11-29T23:22:31.704Z,24.00
2022-11-29T23:25:18.973Z,20.80
2022-11-29T23:28:05.763Z,19.40
2022-11-29T23:30:54.384Z,22.60
2022-11-29T23:33:41.255Z,23.60
2022-11-29T23:36:27.913Z,20.30
2022-11-29T23:39:14.901Z,22.60
2022-11-29T23:42:01.768Z,25.40
2022-11-29T23:44:48.969Z,21.10
2022-11-29T23:47:36.042Z,19.70
2022-11-29T23:50:23.410Z,17.70
2022-11-29T23:53:13.615Z,16.10
2022-11-29T23:56:01.807Z,23.60
2022-11-29T23:58:49.004Z,22.80
